NCAR-RAP Real-Time Weather Data

Output produced by METARs form (01 December 2020  17:14 UTC)
found at http://weather.rap.ucar.edu/surface/
 
KHON 011655Z AUTO 13007KT 10SM CLR 00/M08 A2994 RMK AO2 SLP153 T00001078
KHON 011555Z AUTO 19007KT 10SM CLR M02/M08 A2994 RMK AO2 SLP154 T10221083
KHON 011455Z AUTO 16006KT 10SM CLR M04/M09 A2992 RMK AO2 SLP149 T10391089 53023
KHON 011355Z AUTO 16008G18KT 10SM CLR M05/M09 A2988 RMK AO2 SLP137 T10501089
KHON 011255Z AUTO 14009KT 10SM CLR M06/M09 A2987 RMK AO2 SLP133 T10561094
KHON 011155Z AUTO 14009KT 10SM CLR M05/M09 A2985 RMK AO2 SLP125 T10501094 11039 21056 58014 $
KHON 011055Z AUTO 14011KT CLR M05/M09 A2986 RMK AO2 SLP126 T10501094 $
KHON 010955Z AUTO 15008KT CLR M05/M09 A2989 RMK AO2 SLP134 T10501094 $
KHON 010855Z AUTO 14009KT CLR M05/M09 A2989 RMK AO2 SLP137 T10501089 55006 $
KHON 010755Z AUTO 15009KT CLR M04/M09 A2989 RMK AO2 SLP135 T10441089 $
KHON 010655Z AUTO 15010G18KT CLR M04/M09 A2991 RMK AO2 SLP142 T10391089 $
KHON 010555Z AUTO 15010KT CLR M04/M09 A2991 RMK AO2 SLP144 T10391089 10006 21039 400561122 56008 $
KHON 010455Z AUTO 15009KT CLR M03/M09 A2992 RMK AO2 SLP149 T10331089 $
KHON 010355Z AUTO 16009KT 10SM CLR M03/M09 A2993 RMK AO2 SLP152 T10281089